Runnells, IA (50237)

10:15 PM CDT on August 28, 2015 (GMT -0500)
Carlisle | | Change Station
CLOSE
Current Station
Personal Weather Station
Location: Carlisle, IA
Elevation: 817 ft
Nearby Weather Stations
Active Advisory: Flood Warning Active Notice: Record Report

Elev 817 ft 41.49 °N, 93.49 °W | Updated 1 minute ago

Overcast
Overcast
68.9 °F
Feels Like 68.9 °F
N
0.0
Wind Variable Wind from ESE

Today
High -- | Low -- °F
--% Chance of Precip.
Yesterday
High -- | Low -- °F
Precip. -- in
6:35 AM 7:53 PM
Waxing Gibbous, 99% visible
Pressure 29.89 in
Visibility 8.0 miles
Clouds Few 2200 ft
Mostly Cloudy 2700 ft
Overcast 3300 ft
Dew Point 67 °F
Humidity 95%
Rainfall 0.58 in
Snow Depth Not available.
UV 0 out of 12
Pollen 1.10 out of 12
Air Quality Not available.
Flu Activity Not available.
METAR KIKV 290255Z AUTO 17004KT 8SM -RA FEW022 BKN027 OVC033 21/21 A2989 RMK AO2 P0001
Pressure 29.89 in
Visibility 8.0 miles
Clouds Few 2200 ft
Mostly Cloudy 2700 ft
Overcast 3300 ft
Dew Point 67 °F
Humidity 95%
Rainfall 0.58 in
Snow Depth Not available.
UV 0 out of 12
Pollen 1.10 out of 12
Air Quality Not available.
Flu Activity Not available.
METAR KIKV 290255Z AUTO 17004KT 8SM -RA FEW022 BKN027 OVC033 21/21 A2989 RMK AO2 P0001

10-Day Weather Forecast

×

Almanac

Astronomy

Aug. 28, 2015 Rise Set
Actual Time
Civil Twilight
Nautical Twilight
Astronomical Twilight
Moon
Length of Visible Light
Length of Day
Tomorrow will be .
, % of the Moon is Illuminated

Today's Extremes

State Highs State Lows

Community

WunderPhotos

Upload Photos

1,850,606 photos uploaded!

WunderBlogs® & News

Nearby

Air Quality

  Air Quality AQ Index Pollutant
Not available.

Snow Depth

Station Depth Elevation

Earthquake Activity

City Distance Mag. Time & Date
Minimum magnitude displayed is 2.5.

Coastal Water Temperatures

Place Temperature

Stations

Nearby Weather Stations

Station Location Temp. Windchill Dew Point Humidity Wind Precip. Elev Updated Type
                   
Flood Warning
Statement as of 8:44 PM CDT on August 28, 2015

... Flood Warning now in effect until midday Sunday...

The Flood Warning continues for
the south Skunk River near Ames US 30... or from squaw creek... to
the Polk-Jasper County line.
* Until midday Sunday.
* At 7:00 PM Friday the stage was 16.7 feet... or 4.8 feet below
flood stage.
* Flood stage is 21.5 feet.
* No flooding is occurring and minor flooding is forecast.
* Forecast... rise to flood stage after midnight tonight. Continue
rising to around 23.4 feet... or 1.9 feet above flood stage...
Saturday afternoon. Go below flood stage midday Sunday.
* Impact... at 23.0 feet... the Shady Grove trailer park... located
at 1006 South Dayton Avenue... floods. The Railroad just
northeast of Cambridge floods as well.


Lat... Lon 4201 9362 4201 9357 4174 9335 4168 9335
      4180 9352 4201 9362


Zogg